Time;durP1;ratioP1;P1;durP2;ratioP2;P2;SDS_P1;SDS_P2;PMS_P1;PMS_P2;Temp;Humidity;BMP_temperature;BMP_pressure;BME280_temperature;BME280_humidity;BME280_pressure;Samples;Min_cycle;Max_cycle;Signal;HPM_P1;HPM_P2
2023/12/09 00:01:53;;;;;;;72.00;67.00;;;;;;;;;;5022386;28;20041;-59
2023/12/09 00:04:19;;;;;;;77.57;72.72;;;;;;;;;;5022290;28;20113;-59
2023/12/09 00:06:48;;;;;;;72.32;67.78;;;;;;;;;;5024274;28;20052;-59
2023/12/09 00:09:15;;;;;;;74.28;68.72;;;;;;;;;;5023646;28;20037;-59
2023/12/09 00:11:41;;;;;;;68.45;64.30;;;;;;;;;;5022401;28;20038;-59
2023/12/09 00:14:06;;;;;;;73.32;68.75;;;;;;;;;;5019615;28;20036;-60
2023/12/09 00:16:32;;;;;;;74.25;70.05;;;;;;;;;;5022092;28;20575;-59
2023/12/09 00:18:58;;;;;;;74.85;70.13;;;;;;;;;;5021388;28;20034;-59
2023/12/09 00:21:24;;;;;;;69.07;65.07;;;;;;;;;;5017770;28;20451;-59
2023/12/09 00:23:49;;;;;;;72.45;67.15;;;;;;;;;;5026227;28;20080;-59
2023/12/09 00:26:15;;;;;;;72.30;66.78;;;;;;;;;;5020352;28;20037;-59
2023/12/09 00:28:40;;;;;;;73.00;68.07;;;;;;;;;;5020780;28;20042;-59
2023/12/09 00:31:06;;;;;;;73.55;68.22;;;;;;;;;;5022521;28;20033;-59
2023/12/09 00:33:31;;;;;;;69.15;65.10;;;;;;;;;;5021902;28;20038;-59
2023/12/09 00:35:56;;;;;;;68.15;63.72;;;;;;;;;;5018102;28;20589;-59
2023/12/09 00:38:22;;;;;;;65.30;60.90;;;;;;;;;;5019248;28;20021;-59
2023/12/09 00:40:47;;;;;;;67.10;63.28;;;;;;;;;;5024049;28;20041;-59
2023/12/09 00:43:12;;;;;;;65.00;60.55;;;;;;;;;;5024971;28;20042;-59
2023/12/09 00:45:38;;;;;;;68.70;63.97;;;;;;;;;;5022517;28;20040;-60
2023/12/09 00:48:04;;;;;;;65.95;62.08;;;;;;;;;;5020878;28;20088;-59
2023/12/09 00:50:29;;;;;;;75.25;70.43;;;;;;;;;;5019637;28;20033;-59
2023/12/09 00:52:54;;;;;;;70.50;66.18;;;;;;;;;;5020615;28;20022;-59
2023/12/09 00:55:19;;;;;;;70.25;65.88;;;;;;;;;;5009221;28;20105;-60
2023/12/09 00:57:45;;;;;;;66.97;63.20;;;;;;;;;;5021242;28;22519;-59
2023/12/09 01:00:11;;;;;;;72.85;68.25;;;;;;;;;;5023537;28;20040;-59
2023/12/09 01:02:38;;;;;;;71.05;66.50;;;;;;;;;;5022896;28;20034;-59
2023/12/09 01:05:05;;;;;;;66.80;63.00;;;;;;;;;;5024648;28;20052;-59
2023/12/09 01:07:30;;;;;;;69.25;65.10;;;;;;;;;;5022050;28;20029;-59
2023/12/09 01:09:56;;;;;;;70.32;65.25;;;;;;;;;;5024193;28;20043;-59
2023/12/09 01:12:21;;;;;;;69.43;65.32;;;;;;;;;;5022631;28;20122;-60
2023/12/09 01:14:47;;;;;;;68.63;64.60;;;;;;;;;;5022543;28;20187;-60
2023/12/09 01:17:12;;;;;;;67.13;63.22;;;;;;;;;;5024633;28;20045;-59
2023/12/09 01:19:37;;;;;;;68.85;64.40;;;;;;;;;;5022481;28;20029;-62
2023/12/09 01:22:03;;;;;;;66.15;62.00;;;;;;;;;;5029092;28;20044;-59
2023/12/09 01:24:28;;;;;;;66.15;62.35;;;;;;;;;;5022486;28;20542;-58
2023/12/09 01:26:54;;;;;;;64.35;59.90;;;;;;;;;;5026508;28;20127;-58
2023/12/09 01:29:19;;;;;;;63.25;59.38;;;;;;;;;;5021217;28;20410;-59
2023/12/09 01:31:44;;;;;;;61.53;58.17;;;;;;;;;;5020231;28;20044;-58
2023/12/09 01:34:10;;;;;;;64.47;60.67;;;;;;;;;;5021716;28;20474;-58
2023/12/09 01:36:35;;;;;;;63.78;59.63;;;;;;;;;;5020733;28;20136;-58
2023/12/09 01:39:00;;;;;;;63.35;59.38;;;;;;;;;;5024548;28;20048;-58
2023/12/09 01:41:27;;;;;;;66.90;63.22;;;;;;;;;;5023038;28;20040;-58
2023/12/09 01:43:53;;;;;;;64.22;60.33;;;;;;;;;;5024666;28;20048;-59
2023/12/09 01:46:20;;;;;;;66.20;62.17;;;;;;;;;;5022648;28;20448;-58
2023/12/09 01:48:45;;;;;;;63.72;59.42;;;;;;;;;;5017542;28;20038;-58
2023/12/09 01:51:12;;;;;;;63.45;59.55;;;;;;;;;;5021863;28;20045;-59
2023/12/09 01:53:38;;;;;;;60.83;57.22;;;;;;;;;;5022389;28;20041;-58
2023/12/09 01:56:05;;;;;;;67.47;62.38;;;;;;;;;;5022270;28;20039;-59
2023/12/09 01:58:33;;;;;;;65.95;61.42;;;;;;;;;;5023293;28;20057;-58
2023/12/09 02:00:59;;;;;;;64.18;59.10;;;;;;;;;;5020929;28;20055;-59
2023/12/09 02:03:24;;;;;;;63.20;59.78;;;;;;;;;;5022144;28;20025;-60
2023/12/09 02:05:50;;;;;;;66.50;62.33;;;;;;;;;;5020560;28;20120;-58
2023/12/09 02:08:15;;;;;;;68.65;63.85;;;;;;;;;;5022702;28;20041;-58
2023/12/09 02:10:41;;;;;;;67.45;61.80;;;;;;;;;;5020090;28;20400;-59
2023/12/09 02:13:17;;;;;;;71.85;66.63;;;;;;;;;;5024993;28;20723;-58
2023/12/09 02:15:57;;;;;;;66.50;62.53;;;;;;;;;;5020960;28;20056;-58
2023/12/09 02:18:25;;;;;;;62.35;58.15;;;;;;;;;;5024896;28;20082;-58
2023/12/09 02:20:50;;;;;;;65.28;61.42;;;;;;;;;;5019665;28;20053;-58
2023/12/09 02:23:16;;;;;;;69.43;65.45;;;;;;;;;;5020967;28;20026;-58
2023/12/09 02:25:41;;;;;;;67.68;63.85;;;;;;;;;;5022678;28;20585;-58
2023/12/09 02:28:19;;;;;;;68.53;64.72;;;;;;;;;;5018564;28;20507;-58
2023/12/09 02:30:47;;;;;;;68.63;64.90;;;;;;;;;;5021304;28;20038;-58
2023/12/09 02:33:14;;;;;;;68.40;64.68;;;;;;;;;;5021282;28;20044;-58
2023/12/09 02:35:41;;;;;;;70.22;65.65;;;;;;;;;;5023409;28;20044;-58
2023/12/09 02:38:07;;;;;;;71.60;66.70;;;;;;;;;;5021756;28;20463;-58
2023/12/09 02:40:33;;;;;;;71.88;67.65;;;;;;;;;;5026448;28;20106;-58
2023/12/09 02:42:59;;;;;;;71.22;66.22;;;;;;;;;;5021548;28;20034;-58
2023/12/09 02:45:25;;;;;;;69.00;65.13;;;;;;;;;;5024518;28;20088;-58
2023/12/09 02:47:50;;;;;;;74.43;69.90;;;;;;;;;;5024912;28;20038;-58
2023/12/09 02:50:15;;;;;;;74.88;70.50;;;;;;;;;;5023943;28;20041;-58
2023/12/09 02:52:41;;;;;;;75.63;71.25;;;;;;;;;;5022518;28;20056;-58
2023/12/09 02:55:07;;;;;;;77.78;73.63;;;;;;;;;;5025222;28;20037;-58
2023/12/09 02:57:33;;;;;;;79.43;75.07;;;;;;;;;;5025114;28;20069;-58
2023/12/09 02:59:58;;;;;;;77.07;72.72;;;;;;;;;;5025308;28;20139;-59
2023/12/09 03:02:24;;;;;;;74.80;70.47;;;;;;;;;;5028388;28;20025;-58
2023/12/09 03:04:49;;;;;;;80.30;75.78;;;;;;;;;;5027880;28;20120;-58
2023/12/09 03:07:14;;;;;;;81.60;77.18;;;;;;;;;;5025415;28;20028;-58
2023/12/09 03:09:40;;;;;;;83.05;78.43;;;;;;;;;;5024028;28;20136;-58
2023/12/09 03:12:05;;;;;;;82.45;77.97;;;;;;;;;;5023304;28;20930;-58
2023/12/09 03:14:31;;;;;;;82.15;77.60;;;;;;;;;;5024405;28;20034;-58
2023/12/09 03:16:56;;;;;;;80.78;76.18;;;;;;;;;;5022587;28;20063;-58
2023/12/09 03:19:21;;;;;;;76.40;72.38;;;;;;;;;;5024076;28;20025;-58
2023/12/09 03:21:47;;;;;;;77.97;73.88;;;;;;;;;;5023769;28;20043;-58
2023/12/09 03:24:12;;;;;;;80.88;76.30;;;;;;;;;;5027828;28;20047;-58
2023/12/09 03:26:37;;;;;;;85.57;81.10;;;;;;;;;;5024654;28;20305;-58
2023/12/09 03:29:03;;;;;;;81.65;77.38;;;;;;;;;;5025136;28;20038;-58
2023/12/09 03:31:28;;;;;;;85.97;81.45;;;;;;;;;;5024860;28;20033;-58
2023/12/09 03:33:53;;;;;;;88.47;83.68;;;;;;;;;;5022626;28;20407;-58
2023/12/09 03:36:19;;;;;;;95.18;90.05;;;;;;;;;;5021781;28;20355;-58
2023/12/09 03:38:44;;;;;;;93.00;88.15;;;;;;;;;;5024197;28;20458;-58
2023/12/09 03:41:10;;;;;;;95.72;90.47;;;;;;;;;;5026326;28;20051;-59
2023/12/09 03:43:36;;;;;;;82.28;78.07;;;;;;;;;;5023501;28;20088;-58
2023/12/09 03:46:01;;;;;;;88.28;83.70;;;;;;;;;;5024747;28;20435;-58
2023/12/09 03:48:28;;;;;;;90.40;85.53;;;;;;;;;;5023375;28;20071;-59
2023/12/09 03:50:54;;;;;;;86.07;81.32;;;;;;;;;;5023212;28;20121;-58
2023/12/09 03:53:19;;;;;;;79.90;75.78;;;;;;;;;;5026512;28;20052;-58
2023/12/09 03:55:45;;;;;;;78.72;74.65;;;;;;;;;;5025642;28;20044;-58
2023/12/09 03:58:10;;;;;;;78.95;74.63;;;;;;;;;;5024876;28;20035;-58
2023/12/09 04:00:36;;;;;;;72.70;68.22;;;;;;;;;;5024068;28;20446;-58
2023/12/09 04:03:02;;;;;;;75.25;71.05;;;;;;;;;;5023659;28;20045;-59
2023/12/09 04:05:28;;;;;;;70.95;67.15;;;;;;;;;;5025961;28;20643;-58
2023/12/09 04:07:53;;;;;;;76.32;72.03;;;;;;;;;;5024864;28;20041;-58
2023/12/09 04:10:19;;;;;;;73.00;68.95;;;;;;;;;;5025072;28;20071;-58
2023/12/09 04:12:44;;;;;;;71.20;67.18;;;;;;;;;;5022788;28;20143;-58
2023/12/09 04:15:11;;;;;;;71.00;66.88;;;;;;;;;;5026956;28;20475;-58
2023/12/09 04:17:37;;;;;;;67.32;63.45;;;;;;;;;;5024436;28;20022;-58
2023/12/09 04:20:04;;;;;;;71.25;67.28;;;;;;;;;;5024241;28;20682;-58
2023/12/09 04:22:29;;;;;;;65.63;62.08;;;;;;;;;;5022509;28;20057;-58
2023/12/09 04:24:55;;;;;;;68.65;64.97;;;;;;;;;;5018017;28;20025;-58
2023/12/09 04:27:20;;;;;;;73.35;69.20;;;;;;;;;;5024773;28;20040;-59
2023/12/09 04:29:46;;;;;;;67.47;63.72;;;;;;;;;;5021784;28;20046;-59
2023/12/09 04:32:11;;;;;;;66.43;62.55;;;;;;;;;;5025898;28;20042;-59
2023/12/09 04:34:38;;;;;;;69.63;65.45;;;;;;;;;;5023839;28;20037;-58
2023/12/09 04:37:03;;;;;;;70.18;66.05;;;;;;;;;;5023660;28;20113;-59
2023/12/09 04:39:29;;;;;;;66.05;62.63;;;;;;;;;;5027857;28;20108;-59
2023/12/09 04:41:54;;;;;;;65.97;62.47;;;;;;;;;;5022042;28;20033;-59
2023/12/09 04:44:22;;;;;;;63.25;59.38;;;;;;;;;;5022912;28;20042;-59
2023/12/09 04:46:48;;;;;;;65.85;61.95;;;;;;;;;;5025238;28;20417;-59
2023/12/09 04:49:13;;;;;;;54.95;51.33;;;;;;;;;;5019554;28;20030;-59
2023/12/09 04:51:39;;;;;;;58.30;54.33;;;;;;;;;;5022790;28;20040;-59
2023/12/09 04:54:04;;;;;;;56.70;53.22;;;;;;;;;;5023851;28;20033;-59
2023/12/09 04:56:29;;;;;;;59.72;56.50;;;;;;;;;;5022463;28;20424;-59
2023/12/09 04:58:55;;;;;;;59.25;55.90;;;;;;;;;;5020423;28;20282;-59
2023/12/09 05:01:21;;;;;;;58.60;55.00;;;;;;;;;;5021994;28;20037;-59
2023/12/09 05:03:47;;;;;;;60.28;56.78;;;;;;;;;;5025225;28;20069;-59
2023/12/09 05:06:12;;;;;;;60.08;56.38;;;;;;;;;;5023250;28;20067;-59
2023/12/09 05:08:39;;;;;;;57.30;54.05;;;;;;;;;;5023410;28;20029;-59
2023/12/09 05:11:04;;;;;;;58.35;54.67;;;;;;;;;;5024619;28;20044;-59
2023/12/09 05:13:29;;;;;;;54.85;51.65;;;;;;;;;;5020376;28;20041;-59
2023/12/09 05:15:55;;;;;;;55.80;52.22;;;;;;;;;;5015362;28;20047;-59
2023/12/09 05:18:20;;;;;;;52.35;49.38;;;;;;;;;;5019960;28;20483;-59
2023/12/09 05:20:45;;;;;;;55.20;51.60;;;;;;;;;;5023400;28;20037;-59
2023/12/09 05:23:11;;;;;;;53.83;50.88;;;;;;;;;;5016511;28;20033;-59
2023/12/09 05:25:36;;;;;;;54.88;51.17;;;;;;;;;;5023372;28;20116;-59
2023/12/09 05:28:02;;;;;;;53.28;49.58;;;;;;;;;;5023751;28;20510;-59
2023/12/09 05:30:28;;;;;;;52.42;49.05;;;;;;;;;;5021192;28;20127;-58
2023/12/09 05:32:53;;;;;;;54.67;51.13;;;;;;;;;;5019531;28;20281;-58
2023/12/09 05:35:18;;;;;;;53.70;50.47;;;;;;;;;;5020063;28;20033;-58
2023/12/09 05:37:44;;;;;;;54.00;50.70;;;;;;;;;;5019738;28;20030;-58
2023/12/09 05:40:10;;;;;;;56.20;52.97;;;;;;;;;;5020038;28;20033;-58
2023/12/09 05:42:35;;;;;;;54.00;50.92;;;;;;;;;;5019151;28;20367;-58
2023/12/09 05:45:00;;;;;;;58.60;55.22;;;;;;;;;;5021218;28;20037;-58
2023/12/09 05:47:26;;;;;;;58.92;55.55;;;;;;;;;;5020195;28;20057;-58
2023/12/09 05:49:51;;;;;;;62.70;58.55;;;;;;;;;;5021012;28;20164;-58
2023/12/09 05:52:17;;;;;;;60.45;56.90;;;;;;;;;;5020157;28;20487;-58
2023/12/09 05:54:42;;;;;;;63.45;59.90;;;;;;;;;;5022287;28;20037;-59
2023/12/09 05:57:07;;;;;;;66.00;62.30;;;;;;;;;;5023632;28;20025;-59
2023/12/09 05:59:33;;;;;;;67.60;62.80;;;;;;;;;;5021133;28;20025;-58
2023/12/09 06:01:58;;;;;;;67.90;64.10;;;;;;;;;;5020962;28;20049;-59
2023/12/09 06:04:24;;;;;;;71.47;67.28;;;;;;;;;;5020236;28;20040;-59
2023/12/09 06:06:49;;;;;;;71.95;67.88;;;;;;;;;;5019909;28;20053;-59
2023/12/09 06:09:14;;;;;;;66.80;63.17;;;;;;;;;;5022035;28;20057;-59
2023/12/09 06:11:40;;;;;;;72.65;68.45;;;;;;;;;;5020309;28;20077;-58
2023/12/09 06:14:07;;;;;;;74.80;70.47;;;;;;;;;;5028070;28;20037;-58
2023/12/09 06:16:32;;;;;;;77.38;72.47;;;;;;;;;;5020672;28;20041;-59
2023/12/09 06:18:57;;;;;;;75.75;71.65;;;;;;;;;;5023181;28;20086;-59
2023/12/09 06:21:24;;;;;;;85.38;80.10;;;;;;;;;;5021244;28;20045;-59
2023/12/09 06:23:51;;;;;;;75.80;71.60;;;;;;;;;;5021812;28;20476;-61
2023/12/09 06:26:16;;;;;;;68.22;64.55;;;;;;;;;;5023427;28;20041;-60
2023/12/09 06:28:42;;;;;;;69.40;65.40;;;;;;;;;;5024843;28;20033;-60
2023/12/09 06:31:10;;;;;;;69.22;65.35;;;;;;;;;;5028310;28;20045;-60
2023/12/09 06:33:35;;;;;;;69.13;65.40;;;;;;;;;;5030596;28;20127;-60
2023/12/09 06:36:01;;;;;;;72.10;68.20;;;;;;;;;;5025288;28;20171;-60
2023/12/09 06:38:26;;;;;;;72.38;67.95;;;;;;;;;;5026367;28;20551;-60
2023/12/09 06:40:52;;;;;;;69.72;66.05;;;;;;;;;;5025516;28;20060;-59
2023/12/09 06:43:17;;;;;;;71.70;67.72;;;;;;;;;;5025587;28;20034;-59
2023/12/09 06:45:42;;;;;;;72.47;68.38;;;;;;;;;;5030446;28;20025;-59
2023/12/09 06:48:08;;;;;;;75.00;70.93;;;;;;;;;;5024844;28;20055;-59
2023/12/09 06:50:33;;;;;;;81.07;76.88;;;;;;;;;;5031254;28;20021;-59
2023/12/09 06:53:01;;;;;;;74.10;70.10;;;;;;;;;;5026835;28;20079;-60
2023/12/09 06:55:27;;;;;;;74.00;70.07;;;;;;;;;;5028619;28;20029;-59
2023/12/09 06:57:53;;;;;;;73.88;69.80;;;;;;;;;;5025388;28;20573;-60
2023/12/09 07:00:18;;;;;;;73.75;69.93;;;;;;;;;;5032005;28;20065;-59
2023/12/09 07:02:44;;;;;;;78.25;73.50;;;;;;;;;;5025103;28;20107;-59
2023/12/09 07:05:15;;;;;;;83.65;79.20;;;;;;;;;;5026147;28;20123;-59
2023/12/09 07:07:41;;;;;;;85.60;81.13;;;;;;;;;;5028309;28;20036;-59
2023/12/09 07:10:07;;;;;;;92.13;87.43;;;;;;;;;;5029131;28;20055;-59
2023/12/09 07:12:33;;;;;;;119.38;113.38;;;;;;;;;;5029460;28;20586;-59
2023/12/09 07:14:59;;;;;;;118.32;112.35;;;;;;;;;;5025539;28;20048;-59
2023/12/09 07:17:25;;;;;;;115.90;110.07;;;;;;;;;;5021553;28;20025;-59
2023/12/09 07:19:52;;;;;;;125.65;119.15;;;;;;;;;;5024873;28;20348;-59
2023/12/09 07:22:18;;;;;;;132.65;125.57;;;;;;;;;;5026086;28;20029;-60
2023/12/09 07:24:43;;;;;;;124.68;118.38;;;;;;;;;;5029135;28;20051;-59
2023/12/09 07:27:09;;;;;;;115.65;109.80;;;;;;;;;;5024449;28;20501;-59
2023/12/09 07:29:34;;;;;;;129.43;122.70;;;;;;;;;;5026693;28;20044;-59
2023/12/09 07:32:00;;;;;;;112.30;105.68;;;;;;;;;;5022245;28;20034;-58
2023/12/09 07:34:26;;;;;;;106.95;101.38;;;;;;;;;;5022215;28;20036;-59
2023/12/09 07:36:51;;;;;;;109.35;103.88;;;;;;;;;;5024305;28;20414;-58
2023/12/09 07:39:17;;;;;;;106.75;101.13;;;;;;;;;;5024319;28;20634;-59
2023/12/09 07:41:43;;;;;;;101.90;96.60;;;;;;;;;;5024630;28;20060;-59
2023/12/09 07:44:09;;;;;;;96.40;91.40;;;;;;;;;;5025777;28;20396;-58
2023/12/09 07:46:36;;;;;;;90.68;86.00;;;;;;;;;;5024919;28;20073;-58
2023/12/09 07:49:01;;;;;;;77.03;73.13;;;;;;;;;;5024643;28;20034;-58
2023/12/09 07:51:27;;;;;;;69.38;65.82;;;;;;;;;;5023691;28;20038;-58
2023/12/09 07:53:52;;;;;;;72.43;68.60;;;;;;;;;;5026308;28;20037;-58
2023/12/09 07:56:17;;;;;;;65.70;61.97;;;;;;;;;;5024097;28;20041;-59
2023/12/09 07:58:45;;;;;;;64.47;61.10;;;;;;;;;;5027786;28;20025;-58
2023/12/09 08:01:11;;;;;;;68.50;64.93;;;;;;;;;;5023579;28;20038;-59
2023/12/09 08:03:36;;;;;;;62.33;59.03;;;;;;;;;;5023785;28;20486;-59
2023/12/09 08:06:02;;;;;;;56.90;53.88;;;;;;;;;;5022733;28;20030;-58
2023/12/09 08:08:27;;;;;;;60.67;56.95;;;;;;;;;;5019707;28;20033;-59
2023/12/09 08:10:53;;;;;;;56.40;52.85;;;;;;;;;;5024946;28;20042;-58
2023/12/09 08:13:18;;;;;;;51.40;48.70;;;;;;;;;;5026796;28;20041;-59
2023/12/09 08:15:44;;;;;;;54.17;51.33;;;;;;;;;;5028033;28;20041;-60
2023/12/09 08:18:09;;;;;;;54.13;50.83;;;;;;;;;;5021560;28;20363;-59
2023/12/09 08:20:35;;;;;;;51.10;47.05;;;;;;;;;;5024875;28;20478;-59
2023/12/09 08:23:00;;;;;;;46.83;43.88;;;;;;;;;;5021168;28;20061;-59
2023/12/09 08:25:26;;;;;;;49.45;46.67;;;;;;;;;;5026699;28;20086;-59
2023/12/09 08:27:51;;;;;;;48.97;46.30;;;;;;;;;;5022925;28;20698;-59
2023/12/09 08:30:17;;;;;;;46.15;43.42;;;;;;;;;;5028650;28;20055;-59
2023/12/09 08:32:43;;;;;;;43.75;41.22;;;;;;;;;;5023191;28;20366;-59
2023/12/09 08:35:11;;;;;;;44.33;41.97;;;;;;;;;;5021993;28;20038;-59
2023/12/09 08:37:38;;;;;;;40.40;38.13;;;;;;;;;;5028620;28;20037;-59
2023/12/09 08:40:13;;;;;;;42.03;39.58;;;;;;;;;;5023575;28;20748;-59
2023/12/09 08:42:39;;;;;;;40.50;38.10;;;;;;;;;;5021019;28;20418;-60
2023/12/09 08:45:07;;;;;;;40.85;38.63;;;;;;;;;;5021574;28;20026;-59
2023/12/09 08:47:32;;;;;;;42.42;39.92;;;;;;;;;;5020736;28;20076;-59
2023/12/09 08:49:58;;;;;;;37.88;35.80;;;;;;;;;;5026044;28;20074;-59
2023/12/09 08:52:23;;;;;;;42.22;39.63;;;;;;;;;;5027477;28;20627;-60
2023/12/09 08:54:49;;;;;;;38.38;36.25;;;;;;;;;;5026523;28;20415;-59
2023/12/09 08:57:14;;;;;;;42.42;39.75;;;;;;;;;;5023013;28;20092;-60
2023/12/09 08:59:39;;;;;;;38.03;35.80;;;;;;;;;;5023827;28;20021;-60
2023/12/09 09:02:05;;;;;;;42.83;40.03;;;;;;;;;;5021183;28;20483;-60
2023/12/09 09:04:30;;;;;;;42.90;40.40;;;;;;;;;;5025698;28;20036;-60
2023/12/09 09:06:56;;;;;;;39.67;37.55;;;;;;;;;;5027381;28;20707;-60
2023/12/09 09:09:22;;;;;;;44.20;40.85;;;;;;;;;;5023008;28;20122;-59
2023/12/09 09:11:47;;;;;;;38.03;35.85;;;;;;;;;;5026274;28;20041;-59
2023/12/09 09:14:13;;;;;;;38.45;36.33;;;;;;;;;;5022434;28;20044;-59
2023/12/09 09:16:38;;;;;;;35.60;33.50;;;;;;;;;;5023167;28;20033;-60
2023/12/09 09:19:05;;;;;;;36.50;34.50;;;;;;;;;;5022730;28;20033;-59
2023/12/09 09:21:30;;;;;;;37.05;34.58;;;;;;;;;;5022140;28;20072;-59
2023/12/09 09:23:56;;;;;;;35.10;33.08;;;;;;;;;;5020781;28;20057;-59
2023/12/09 09:26:21;;;;;;;34.80;32.90;;;;;;;;;;5029224;28;20404;-59
2023/12/09 09:28:47;;;;;;;35.08;32.88;;;;;;;;;;5025953;28;20056;-59
2023/12/09 09:31:13;;;;;;;33.55;31.55;;;;;;;;;;5023323;28;20475;-59
2023/12/09 09:33:41;;;;;;;33.30;31.40;;;;;;;;;;5024647;28;20036;-59
2023/12/09 09:36:07;;;;;;;34.60;32.60;;;;;;;;;;5023407;28;20091;-59
2023/12/09 09:38:33;;;;;;;35.60;33.20;;;;;;;;;;5025480;28;20124;-59
2023/12/09 09:41:00;;;;;;;33.67;31.88;;;;;;;;;;5024234;28;20021;-59
2023/12/09 09:43:30;;;;;;;33.53;31.63;;;;;;;;;;5024089;28;20060;-59
2023/12/09 09:45:56;;;;;;;34.58;32.58;;;;;;;;;;5025460;28;20120;-59
2023/12/09 09:48:24;;;;;;;36.65;34.53;;;;;;;;;;5023617;28;20037;-59
2023/12/09 09:50:52;;;;;;;34.63;32.63;;;;;;;;;;5026030;28;20136;-59
2023/12/09 09:53:44;;;;;;;32.60;30.83;;;;;;;;;;5022996;28;20087;-59
2023/12/09 09:56:11;;;;;;;34.60;32.28;;;;;;;;;;5027770;28;20033;-59
2023/12/09 09:58:37;;;;;;;35.03;33.03;;;;;;;;;;5025077;28;21110;-60
2023/12/09 10:01:04;;;;;;;35.72;33.70;;;;;;;;;;5025651;28;20037;-59
2023/12/09 10:03:30;;;;;;;34.47;32.67;;;;;;;;;;5027760;28;20037;-59
2023/12/09 10:05:55;;;;;;;36.35;33.85;;;;;;;;;;5028049;28;20047;-59
2023/12/09 10:08:21;;;;;;;38.92;36.72;;;;;;;;;;5028142;28;20055;-59
2023/12/09 10:10:46;;;;;;;36.92;34.88;;;;;;;;;;5026217;28;20497;-59
2023/12/09 10:13:12;;;;;;;37.50;35.47;;;;;;;;;;5028139;28;20551;-60
2023/12/09 10:15:37;;;;;;;38.47;36.42;;;;;;;;;;5024688;28;20068;-60
2023/12/09 10:18:03;;;;;;;38.25;35.75;;;;;;;;;;5026179;28;20162;-59
2023/12/09 10:20:30;;;;;;;34.03;32.17;;;;;;;;;;5029499;28;20467;-61
2023/12/09 10:22:59;;;;;;;35.38;33.35;;;;;;;;;;5025842;28;20038;-62
2023/12/09 10:25:24;;;;;;;34.03;32.10;;;;;;;;;;5030390;28;20049;-62
2023/12/09 10:27:50;;;;;;;33.28;31.40;;;;;;;;;;5023059;28;20046;-61
2023/12/09 10:30:19;;;;;;;34.67;32.65;;;;;;;;;;5024182;28;20038;-62
2023/12/09 10:32:46;;;;;;;38.72;36.63;;;;;;;;;;5020178;28;20043;-62
2023/12/09 10:35:12;;;;;;;35.20;33.10;;;;;;;;;;5025586;28;20466;-61
2023/12/09 10:37:37;;;;;;;35.25;33.28;;;;;;;;;;5028860;28;20036;-61
2023/12/09 10:40:06;;;;;;;36.58;34.50;;;;;;;;;;5024255;28;20620;-62
2023/12/09 10:42:32;;;;;;;37.50;35.15;;;;;;;;;;5026052;28;20045;-62
2023/12/09 10:44:57;;;;;;;34.47;32.55;;;;;;;;;;5025732;28;20493;-62
2023/12/09 10:47:25;;;;;;;35.45;33.55;;;;;;;;;;5022504;28;20040;-62
2023/12/09 10:49:51;;;;;;;34.53;32.28;;;;;;;;;;5023202;28;20088;-62
2023/12/09 10:52:17;;;;;;;32.25;30.45;;;;;;;;;;5022392;28;20036;-61
2023/12/09 10:54:42;;;;;;;33.53;31.55;;;;;;;;;;5022772;28;20044;-61
2023/12/09 10:57:08;;;;;;;32.53;30.60;;;;;;;;;;5024293;28;20056;-61
2023/12/09 10:59:34;;;;;;;32.33;30.40;;;;;;;;;;5023619;28;20036;-61
2023/12/09 11:02:01;;;;;;;31.73;30.02;;;;;;;;;;5024052;28;20372;-61
2023/12/09 11:04:26;;;;;;;28.48;26.88;;;;;;;;;;5020415;28;20519;-60
2023/12/09 11:06:55;;;;;;;31.27;29.08;;;;;;;;;;5023200;28;20124;-60
2023/12/09 11:09:21;;;;;;;33.45;31.38;;;;;;;;;;5022270;28;20045;-60
2023/12/09 11:11:47;;;;;;;33.58;31.63;;;;;;;;;;5022460;28;20029;-60
2023/12/09 11:14:13;;;;;;;30.75;29.15;;;;;;;;;;5023362;28;20109;-60
2023/12/09 11:16:42;;;;;;;32.65;30.92;;;;;;;;;;5021737;28;20033;-60
2023/12/09 11:19:14;;;;;;;31.73;30.02;;;;;;;;;;5026222;28;20029;-60
2023/12/09 11:21:43;;;;;;;32.78;30.98;;;;;;;;;;5023656;28;20128;-60
2023/12/09 11:24:08;;;;;;;31.70;29.88;;;;;;;;;;5020253;28;20037;-60
2023/12/09 11:26:34;;;;;;;31.60;29.85;;;;;;;;;;5023999;28;20509;-60
2023/12/09 11:29:07;;;;;;;34.47;32.58;;;;;;;;;;5023564;28;20042;-60
2023/12/09 11:31:37;;;;;;;32.65;30.85;;;;;;;;;;5025452;28;20030;-60
2023/12/09 11:34:05;;;;;;;33.40;30.83;;;;;;;;;;5023031;28;20073;-59
2023/12/09 11:36:35;;;;;;;33.33;31.33;;;;;;;;;;5023774;28;20037;-60
2023/12/09 11:39:02;;;;;;;33.17;31.48;;;;;;;;;;5023901;28;20034;-59
2023/12/09 11:41:27;;;;;;;33.22;31.30;;;;;;;;;;5022327;28;20053;-60
2023/12/09 11:43:53;;;;;;;34.58;31.95;;;;;;;;;;5028897;28;20029;-59
2023/12/09 11:46:19;;;;;;;28.83;27.23;;;;;;;;;;5022721;28;20940;-58
2023/12/09 11:48:44;;;;;;;30.80;29.15;;;;;;;;;;5023531;28;20059;-59
2023/12/09 11:51:10;;;;;;;30.55;28.85;;;;;;;;;;5023881;28;20037;-58
2023/12/09 11:53:35;;;;;;;28.67;27.17;;;;;;;;;;5027513;28;20042;-59
2023/12/09 11:56:00;;;;;;;31.58;29.67;;;;;;;;;;5027507;28;20041;-59
2023/12/09 11:58:26;;;;;;;29.15;27.55;;;;;;;;;;5022571;28;20034;-59
2023/12/09 12:00:51;;;;;;;31.85;30.05;;;;;;;;;;5025582;28;20544;-59
2023/12/09 12:03:17;;;;;;;31.30;29.52;;;;;;;;;;5022288;28;20122;-59
2023/12/09 12:05:42;;;;;;;33.78;31.77;;;;;;;;;;5029582;28;20558;-59
2023/12/09 12:08:08;;;;;;;35.45;33.55;;;;;;;;;;5028189;28;20045;-59
2023/12/09 12:10:34;;;;;;;34.08;32.28;;;;;;;;;;5027545;28;20813;-59
2023/12/09 12:13:02;;;;;;;35.78;33.78;;;;;;;;;;5025290;28;20033;-60
2023/12/09 12:15:27;;;;;;;35.65;33.75;;;;;;;;;;5024310;28;20037;-59
2023/12/09 12:17:53;;;;;;;35.63;33.72;;;;;;;;;;5025185;28;20048;-59
2023/12/09 12:20:18;;;;;;;36.50;34.60;;;;;;;;;;5023610;28;20044;-59
2023/12/09 12:22:44;;;;;;;36.55;34.55;;;;;;;;;;5026532;28;20466;-59
2023/12/09 12:25:09;;;;;;;36.70;34.80;;;;;;;;;;5029326;28;20037;-60
2023/12/09 12:27:44;;;;;;;37.10;35.20;;;;;;;;;;5023404;28;20051;-60
2023/12/09 12:30:09;;;;;;;37.70;35.70;;;;;;;;;;5023555;28;20053;-59
2023/12/09 12:32:37;;;;;;;34.97;33.17;;;;;;;;;;5023749;28;20120;-59
2023/12/09 12:35:06;;;;;;;34.65;32.85;;;;;;;;;;5022614;28;20047;-59
2023/12/09 12:37:32;;;;;;;33.72;31.92;;;;;;;;;;5024471;28;20034;-59
2023/12/09 12:39:57;;;;;;;32.15;30.45;;;;;;;;;;5024322;28;20087;-60
2023/12/09 12:42:23;;;;;;;30.92;29.25;;;;;;;;;;5025315;28;20373;-60
2023/12/09 12:44:48;;;;;;;32.85;31.15;;;;;;;;;;5022707;28;20052;-59
2023/12/09 12:47:13;;;;;;;31.88;29.88;;;;;;;;;;5025379;28;20024;-59
2023/12/09 12:49:39;;;;;;;31.05;29.38;;;;;;;;;;5025456;28;20123;-60
2023/12/09 12:52:05;;;;;;;30.38;28.67;;;;;;;;;;5025693;28;20037;-60
2023/12/09 12:54:31;;;;;;;30.98;29.38;;;;;;;;;;5025402;28;20033;-61
2023/12/09 12:56:56;;;;;;;32.08;30.33;;;;;;;;;;5025692;28;20040;-61
2023/12/09 12:59:21;;;;;;;32.60;30.67;;;;;;;;;;5026182;28;20041;-60
2023/12/09 13:01:47;;;;;;;34.03;32.00;;;;;;;;;;5021720;28;20037;-60
2023/12/09 13:04:12;;;;;;;34.05;32.28;;;;;;;;;;5028486;28;20033;-60
2023/12/09 13:06:37;;;;;;;34.15;32.35;;;;;;;;;;5022227;28;20033;-60
2023/12/09 13:09:04;;;;;;;37.20;35.08;;;;;;;;;;5021180;28;20024;-60
2023/12/09 13:11:30;;;;;;;32.83;31.08;;;;;;;;;;5023624;28;20053;-60
2023/12/09 13:13:55;;;;;;;32.67;30.70;;;;;;;;;;5044548;28;20068;-61
2023/12/09 13:16:21;;;;;;;31.02;29.25;;;;;;;;;;5020138;28;20041;-60
2023/12/09 13:18:46;;;;;;;32.08;30.38;;;;;;;;;;5022742;28;20036;-60
2023/12/09 13:21:11;;;;;;;30.35;28.75;;;;;;;;;;5020206;28;20069;-60
2023/12/09 13:23:36;;;;;;;30.00;28.30;;;;;;;;;;5024077;28;20030;-61
2023/12/09 13:26:02;;;;;;;28.15;26.65;;;;;;;;;;5020566;28;20075;-59
2023/12/09 13:28:27;;;;;;;29.05;27.45;;;;;;;;;;5026308;28;20057;-60
2023/12/09 13:30:54;;;;;;;31.30;29.52;;;;;;;;;;5025688;28;20116;-59
2023/12/09 13:33:19;;;;;;;30.30;28.67;;;;;;;;;;5023619;28;20470;-60
2023/12/09 13:35:48;;;;;;;30.73;29.13;;;;;;;;;;5023360;28;20041;-59
2023/12/09 13:38:13;;;;;;;33.10;31.23;;;;;;;;;;5021276;28;20565;-59
2023/12/09 13:40:44;;;;;;;33.25;31.10;;;;;;;;;;5019560;28;20112;-60
2023/12/09 13:43:10;;;;;;;35.72;33.88;;;;;;;;;;5018553;28;20038;-59
2023/12/09 13:45:36;;;;;;;33.83;32.03;;;;;;;;;;5024603;28;20072;-60
2023/12/09 13:48:02;;;;;;;32.38;30.67;;;;;;;;;;5019380;28;20041;-61
2023/12/09 13:50:27;;;;;;;35.53;33.63;;;;;;;;;;5023922;28;20040;-60
2023/12/09 13:52:52;;;;;;;32.78;31.08;;;;;;;;;;5020045;28;20045;-60
2023/12/09 13:55:20;;;;;;;32.72;31.02;;;;;;;;;;5019950;28;20367;-60
2023/12/09 13:57:46;;;;;;;37.28;35.17;;;;;;;;;;5016214;28;20466;-62
2023/12/09 14:00:12;;;;;;;35.83;33.92;;;;;;;;;;5015855;28;20034;-60
2023/12/09 14:02:38;;;;;;;34.90;33.10;;;;;;;;;;5015605;28;20053;-61
2023/12/09 14:05:04;;;;;;;33.55;31.83;;;;;;;;;;5015992;28;20065;-60
2023/12/09 14:07:30;;;;;;;35.53;33.42;;;;;;;;;;5017196;28;20086;-60
2023/12/09 14:09:56;;;;;;;34.80;33.00;;;;;;;;;;5015016;28;20041;-60